sensor_id;sensor_type;location;lat;lon;timestamp;P1;P2;P0
55076;PMS7003;40971;44.702;11.030;2023-05-29T00:04:07;27.00;26.00;19.33
55076;PMS7003;40971;44.702;11.030;2023-05-29T00:14:10;37.33;32.33;20.67
55076;PMS7003;40971;44.702;11.030;2023-05-29T00:24:16;35.33;35.33;22.67
55076;PMS7003;40971;44.702;11.030;2023-05-29T00:34:19;34.67;32.67;23.67
55076;PMS7003;40971;44.702;11.030;2023-05-29T00:44:24;41.00;37.67;25.00
55076;PMS7003;40971;44.702;11.030;2023-05-29T00:54:27;37.00;32.33;23.00
55076;PMS7003;40971;44.702;11.030;2023-05-29T01:04:32;24.67;24.00;16.33
55076;PMS7003;40971;44.702;11.030;2023-05-29T01:25:17;34.00;31.33;20.67
55076;PMS7003;40971;44.702;11.030;2023-05-29T01:35:23;30.33;28.33;20.67
55076;PMS7003;40971;44.702;11.030;2023-05-29T01:45:28;43.78;37.89;25.56
55076;PMS7003;40971;44.702;11.030;2023-05-29T01:55:31;42.33;36.33;24.00
55076;PMS7003;40971;44.702;11.030;2023-05-29T02:05:34;38.67;35.67;26.00
55076;PMS7003;40971;44.702;11.030;2023-05-29T02:15:36;40.33;36.00;23.00
55076;PMS7003;40971;44.702;11.030;2023-05-29T02:25:38;35.67;34.33;22.00
55076;PMS7003;40971;44.702;11.030;2023-05-29T02:35:42;35.00;31.67;22.67
55076;PMS7003;40971;44.702;11.030;2023-05-29T02:45:44;34.00;30.00;22.00
55076;PMS7003;40971;44.702;11.030;2023-05-29T02:55:48;34.67;34.67;24.33
55076;PMS7003;40971;44.702;11.030;2023-05-29T03:05:51;37.33;31.67;21.00
55076;PMS7003;40971;44.702;11.030;2023-05-29T03:15:56;30.89;29.00;20.22
55076;PMS7003;40971;44.702;11.030;2023-05-29T03:26:01;36.33;34.11;24.22
55076;PMS7003;40971;44.702;11.030;2023-05-29T03:36:05;41.00;39.00;26.00
55076;PMS7003;40971;44.702;11.030;2023-05-29T03:46:09;45.33;41.67;27.00
55076;PMS7003;40971;44.702;11.030;2023-05-29T03:56:12;43.00;38.00;26.00
55076;PMS7003;40971;44.702;11.030;2023-05-29T04:06:17;52.44;45.00;29.56
55076;PMS7003;40971;44.702;11.030;2023-05-29T04:16:19;54.33;47.00;30.00
55076;PMS7003;40971;44.702;11.030;2023-05-29T04:26:24;54.56;46.78;30.11
55076;PMS7003;40971;44.702;11.030;2023-05-29T04:36:28;56.13;46.88;32.00
55076;PMS7003;40971;44.702;11.030;2023-05-29T04:46:34;50.75;43.75;28.00
55076;PMS7003;40971;44.702;11.030;2023-05-29T04:56:37;47.33;43.00;30.00
55076;PMS7003;40971;44.702;11.030;2023-05-29T05:06:42;60.25;49.50;31.00
55076;PMS7003;40971;44.702;11.030;2023-05-29T05:16:45;52.00;43.33;29.33
55076;PMS7003;40971;44.702;11.030;2023-05-29T05:26:46;55.00;45.00;29.00
55076;PMS7003;40971;44.702;11.030;2023-05-29T05:36:48;60.00;47.33;30.67
55076;PMS7003;40971;44.702;11.030;2023-05-29T05:46:51;47.00;42.00;26.50
55076;PMS7003;40971;44.702;11.030;2023-05-29T05:56:55;40.00;37.33;24.33
55076;PMS7003;40971;44.702;11.030;2023-05-29T06:06:57;40.33;35.33;24.00
55076;PMS7003;40971;44.702;11.030;2023-05-29T06:17:02;34.33;33.22;22.33
55076;PMS7003;40971;44.702;11.030;2023-05-29T06:27:05;32.00;30.67;21.00
55076;PMS7003;40971;44.702;11.030;2023-05-29T06:37:10;31.00;31.00;20.78
55076;PMS7003;40971;44.702;11.030;2023-05-29T06:47:12;31.50;30.00;21.50
55076;PMS7003;40971;44.702;11.030;2023-05-29T06:57:14;33.33;31.00;22.67
55076;PMS7003;40971;44.702;11.030;2023-05-29T07:07:19;33.56;30.33;20.78
55076;PMS7003;40971;44.702;11.030;2023-05-29T07:17:20;29.50;29.00;20.50
55076;PMS7003;40971;44.702;11.030;2023-05-29T07:27:22;29.33;29.00;21.67
55076;PMS7003;40971;44.702;11.030;2023-05-29T07:37:26;28.00;28.00;19.50
55076;PMS7003;40971;44.702;11.030;2023-05-29T07:47:28;30.00;29.50;21.50
55076;PMS7003;40971;44.702;11.030;2023-05-29T07:57:29;29.50;27.50;20.00
55076;PMS7003;40971;44.702;11.030;2023-05-29T08:07:33;28.75;27.50;18.75
55076;PMS7003;40971;44.702;11.030;2023-05-29T08:17:36;27.75;24.00;16.75
55076;PMS7003;40971;44.702;11.030;2023-05-29T08:27:38;27.75;27.75;19.25
55076;PMS7003;40971;44.702;11.030;2023-05-29T08:37:46;23.00;22.33;16.33
55076;PMS7003;40971;44.702;11.030;2023-05-29T08:47:51;26.50;25.25;18.25
55076;PMS7003;40971;44.702;11.030;2023-05-29T08:57:54;20.00;19.67;14.00
55076;PMS7003;40971;44.702;11.030;2023-05-29T09:07:56;25.00;25.00;17.50
55076;PMS7003;40971;44.702;11.030;2023-05-29T09:17:59;22.50;22.50;17.50
55076;PMS7003;40971;44.702;11.030;2023-05-29T09:28:02;22.00;21.67;16.33
55076;PMS7003;40971;44.702;11.030;2023-05-29T09:38:09;20.67;19.67;15.00
55076;PMS7003;40971;44.702;11.030;2023-05-29T09:48:13;20.33;19.00;15.00
55076;PMS7003;40971;44.702;11.030;2023-05-29T09:58:19;17.00;16.33;14.00
55076;PMS7003;40971;44.702;11.030;2023-05-29T10:08:24;17.33;16.00;12.00
55076;PMS7003;40971;44.702;11.030;2023-05-29T10:18:27;16.00;16.00;12.00
55076;PMS7003;40971;44.702;11.030;2023-05-29T10:28:39;15.00;15.00;12.00
55076;PMS7003;40971;44.702;11.030;2023-05-29T10:38:46;16.00;16.00;12.50
55076;PMS7003;40971;44.702;11.030;2023-05-29T10:48:51;15.33;15.00;12.00
55076;PMS7003;40971;44.702;11.030;2023-05-29T10:58:56;14.50;14.50;10.00
55076;PMS7003;40971;44.702;11.030;2023-05-29T11:08:59;16.00;15.00;12.33
55076;PMS7003;40971;44.702;11.030;2023-05-29T11:19:05;17.00;17.00;14.00
55076;PMS7003;40971;44.702;11.030;2023-05-29T11:29:07;16.00;15.00;12.50
55076;PMS7003;40971;44.702;11.030;2023-05-29T11:39:12;18.33;17.67;11.67
55076;PMS7003;40971;44.702;11.030;2023-05-29T11:49:27;16.33;16.33;13.00
55076;PMS7003;40971;44.702;11.030;2023-05-29T11:59:29;18.00;17.00;12.00
55076;PMS7003;40971;44.702;11.030;2023-05-29T12:09:33;15.38;15.38;11.50
55076;PMS7003;40971;44.702;11.030;2023-05-29T12:19:36;16.67;16.67;11.67
55076;PMS7003;40971;44.702;11.030;2023-05-29T12:29:38;12.67;12.00;9.67
55076;PMS7003;40971;44.702;11.030;2023-05-29T12:39:42;16.50;14.25;10.75
55076;PMS7003;40971;44.702;11.030;2023-05-29T12:49:43;12.67;12.67;9.67
55076;PMS7003;40971;44.702;11.030;2023-05-29T12:59:45;17.50;16.50;12.00
55076;PMS7003;40971;44.702;11.030;2023-05-29T13:09:49;18.38;15.63;10.88
55076;PMS7003;40971;44.702;11.030;2023-05-29T13:19:53;15.50;12.50;10.50
55076;PMS7003;40971;44.702;11.030;2023-05-29T13:29:54;14.00;12.67;9.33
55076;PMS7003;40971;44.702;11.030;2023-05-29T13:39:56;13.00;13.00;9.67
55076;PMS7003;40971;44.702;11.030;2023-05-29T13:49:59;13.00;12.14;10.00
55076;PMS7003;40971;44.702;11.030;2023-05-29T14:00:01;13.00;13.00;11.00
55076;PMS7003;40971;44.702;11.030;2023-05-29T14:10:02;11.00;11.00;9.00
55076;PMS7003;40971;44.702;11.030;2023-05-29T14:20:03;14.00;14.00;11.00
55076;PMS7003;40971;44.702;11.030;2023-05-29T14:30:06;14.00;12.67;9.67
55076;PMS7003;40971;44.702;11.030;2023-05-29T14:40:09;13.00;12.00;9.00
55076;PMS7003;40971;44.702;11.030;2023-05-29T14:50:12;13.14;11.00;8.86
55076;PMS7003;40971;44.702;11.030;2023-05-29T15:00:16;20.33;19.33;15.00
55076;PMS7003;40971;44.702;11.030;2023-05-29T15:10:20;10.20;10.00;9.00
55076;PMS7003;40971;44.702;11.030;2023-05-29T15:20:23;13.67;10.67;9.67
55076;PMS7003;40971;44.702;11.030;2023-05-29T15:30:25;12.80;12.00;9.20
55076;PMS7003;40971;44.702;11.030;2023-05-29T15:40:28;12.29;10.57;8.71
55076;PMS7003;40971;44.702;11.030;2023-05-29T15:50:30;12.33;11.67;9.67
55076;PMS7003;40971;44.702;11.030;2023-05-29T16:00:32;16.00;15.25;10.00
55076;PMS7003;40971;44.702;11.030;2023-05-29T16:10:35;14.00;13.20;10.20
55076;PMS7003;40971;44.702;11.030;2023-05-29T16:20:38;11.67;11.67;9.67
55076;PMS7003;40971;44.702;11.030;2023-05-29T16:30:39;11.67;10.67;7.67
55076;PMS7003;40971;44.702;11.030;2023-05-29T16:40:40;16.00;16.00;10.20
55076;PMS7003;40971;44.702;11.030;2023-05-29T16:50:41;13.50;13.50;10.00
55076;PMS7003;40971;44.702;11.030;2023-05-29T17:00:42;14.33;12.67;10.67
55076;PMS7003;40971;44.702;11.030;2023-05-29T17:10:44;10.20;10.20;8.80
55076;PMS7003;40971;44.702;11.030;2023-05-29T17:20:49;12.00;12.00;9.00
55076;PMS7003;40971;44.702;11.030;2023-05-29T17:30:50;14.00;14.00;10.00
55076;PMS7003;40971;44.702;11.030;2023-05-29T17:40:52;12.80;12.80;10.40
55076;PMS7003;40971;44.702;11.030;2023-05-29T17:50:53;12.67;12.67;10.33
55076;PMS7003;40971;44.702;11.030;2023-05-29T18:00:54;16.00;14.67;11.33
55076;PMS7003;40971;44.702;11.030;2023-05-29T18:11:03;15.60;15.00;11.00
55076;PMS7003;40971;44.702;11.030;2023-05-29T18:21:05;10.80;9.60;8.00
55076;PMS7003;40971;44.702;11.030;2023-05-29T18:31:09;13.40;13.20;10.60
55076;PMS7003;40971;44.702;11.030;2023-05-29T18:41:11;13.60;13.60;10.00
55076;PMS7003;40971;44.702;11.030;2023-05-29T18:51:13;14.40;14.40;11.60
55076;PMS7003;40971;44.702;11.030;2023-05-29T19:01:14;14.00;12.00;8.00
55076;PMS7003;40971;44.702;11.030;2023-05-29T19:11:15;14.33;13.33;10.67
55076;PMS7003;40971;44.702;11.030;2023-05-29T19:21:18;16.67;16.67;12.00
55076;PMS7003;40971;44.702;11.030;2023-05-29T19:31:21;16.00;16.00;11.67
55076;PMS7003;40971;44.702;11.030;2023-05-29T19:41:27;13.00;13.00;11.00
55076;PMS7003;40971;44.702;11.030;2023-05-29T19:51:28;15.00;14.00;10.00
55076;PMS7003;40971;44.702;11.030;2023-05-29T20:01:29;17.00;17.00;11.50
55076;PMS7003;40971;44.702;11.030;2023-05-29T20:11:30;16.67;16.67;10.67
55076;PMS7003;40971;44.702;11.030;2023-05-29T20:21:33;20.67;17.33;13.67
55076;PMS7003;40971;44.702;11.030;2023-05-29T20:31:34;20.00;16.33;13.00
55076;PMS7003;40971;44.702;11.030;2023-05-29T20:41:36;21.60;19.20;12.80
55076;PMS7003;40971;44.702;11.030;2023-05-29T20:51:40;17.00;15.67;10.67
55076;PMS7003;40971;44.702;11.030;2023-05-29T21:01:48;16.00;15.00;12.67
55076;PMS7003;40971;44.702;11.030;2023-05-29T21:11:50;16.67;16.67;14.00
55076;PMS7003;40971;44.702;11.030;2023-05-29T21:21:52;19.00;17.80;12.60
55076;PMS7003;40971;44.702;11.030;2023-05-29T21:31:58;17.60;17.60;13.00
55076;PMS7003;40971;44.702;11.030;2023-05-29T21:42:10;24.00;22.50;14.00
55076;PMS7003;40971;44.702;11.030;2023-05-29T21:52:12;18.80;18.00;13.00
55076;PMS7003;40971;44.702;11.030;2023-05-29T22:02:16;17.25;17.13;13.00
55076;PMS7003;40971;44.702;11.030;2023-05-29T22:12:18;22.00;21.00;15.00
55076;PMS7003;40971;44.702;11.030;2023-05-29T22:22:21;19.20;19.20;16.00
55076;PMS7003;40971;44.702;11.030;2023-05-29T22:32:25;19.25;18.25;13.50
55076;PMS7003;40971;44.702;11.030;2023-05-29T22:42:26;19.33;18.33;15.33
55076;PMS7003;40971;44.702;11.030;2023-05-29T22:52:30;19.71;19.71;15.29
55076;PMS7003;40971;44.702;11.030;2023-05-29T23:02:34;25.00;25.00;16.50
55076;PMS7003;40971;44.702;11.030;2023-05-29T23:12:37;26.50;25.50;19.50
55076;PMS7003;40971;44.702;11.030;2023-05-29T23:22:39;24.00;24.00;15.00
55076;PMS7003;40971;44.702;11.030;2023-05-29T23:32:42;26.67;26.67;18.00
55076;PMS7003;40971;44.702;11.030;2023-05-29T23:42:44;29.00;27.33;18.67
55076;PMS7003;40971;44.702;11.030;2023-05-29T23:52:46;26.60;25.00;15.80
